Pagrindinis puslapis
METAR-TAF:

METAR-TAF

Oro uostai :

Mora–Siljan

Mora, Švedija

platuma: 60-57-31N, ilguma: 14-30-40E, Aukštis: 193 m

Dabartinis oras

Ataskaita buvo paskelbta 1 valandą ir 26 minutes, ne 12:50 UTC
Vėjas 5 kt iš Rytų/Pietryčių, svyruoja nuo Rytų ir Pietų/Pietryčių
Temperatūra 27°C
Drėgmė 30%
Slėgis 1025 hPa
Matomumas 10 km arba daugiau

METAR: ESKM 011250Z AUTO 12005KT 080V160 9999 R16/P2000N R34///// NCD 27/08 Q1025

Laikas: 16:16 (14:16 UTC)


TAF: trūkstamas

Orai ataskaitas ir orų prognozės (METAR, TAF).

turimą stotys yra geltonos ir raudonos taškus žemėlapyje.

Perkelti pele per norėdami pamatyti stoties vardą.

Tada spustelėkite, norėdami matyti oro stebėjimo ir prognozės.

Norėdami pakeisti žemėlapį: spustelėkite ant žalios mygtukų su juodo kryžiaus žemyn,; žalią mygtuką su brūkšneliu, jei norite nutolinti; arba žalių rodyklių gretimoms žemėlapius.


METAR-TAF: